sensor_id;sensor_type;location;lat;lon;timestamp;P1;durP1;ratioP1;P2;durP2;ratioP2
53753;SDS011;39667;52.274;20.964;2022-08-01T00:00:34;3.70;;;2.10;;
53753;SDS011;39667;52.274;20.964;2022-08-01T00:03:01;5.10;;;1.90;;
53753;SDS011;39667;52.274;20.964;2022-08-01T00:05:29;3.40;;;1.90;;
53753;SDS011;39667;52.274;20.964;2022-08-01T00:07:56;3.30;;;2.40;;
53753;SDS011;39667;52.274;20.964;2022-08-01T00:10:22;2.30;;;2.10;;
53753;SDS011;39667;52.274;20.964;2022-08-01T00:12:50;2.50;;;2.00;;
53753;SDS011;39667;52.274;20.964;2022-08-01T00:15:17;3.60;;;2.00;;
53753;SDS011;39667;52.274;20.964;2022-08-01T00:17:44;4.90;;;2.20;;
53753;SDS011;39667;52.274;20.964;2022-08-01T00:20:12;4.00;;;3.00;;
53753;SDS011;39667;52.274;20.964;2022-08-01T00:22:40;5.10;;;2.50;;
53753;SDS011;39667;52.274;20.964;2022-08-01T00:25:07;4.40;;;1.90;;
53753;SDS011;39667;52.274;20.964;2022-08-01T00:27:34;3.40;;;2.00;;
53753;SDS011;39667;52.274;20.964;2022-08-01T00:30:03;3.90;;;2.00;;
53753;SDS011;39667;52.274;20.964;2022-08-01T00:32:39;5.40;;;2.30;;
53753;SDS011;39667;52.274;20.964;2022-08-01T00:35:06;8.30;;;2.20;;
53753;SDS011;39667;52.274;20.964;2022-08-01T00:37:33;5.00;;;2.00;;
53753;SDS011;39667;52.274;20.964;2022-08-01T00:40:00;3.50;;;2.00;;
53753;SDS011;39667;52.274;20.964;2022-08-01T00:42:27;5.10;;;1.90;;
53753;SDS011;39667;52.274;20.964;2022-08-01T00:44:54;7.60;;;1.90;;
53753;SDS011;39667;52.274;20.964;2022-08-01T00:47:20;6.00;;;2.50;;
53753;SDS011;39667;52.274;20.964;2022-08-01T00:49:47;6.10;;;2.40;;
53753;SDS011;39667;52.274;20.964;2022-08-01T00:52:14;10.50;;;2.20;;
53753;SDS011;39667;52.274;20.964;2022-08-01T00:54:41;8.10;;;1.90;;
53753;SDS011;39667;52.274;20.964;2022-08-01T00:57:09;4.50;;;2.10;;
53753;SDS011;39667;52.274;20.964;2022-08-01T00:59:36;3.30;;;2.10;;
53753;SDS011;39667;52.274;20.964;2022-08-01T01:02:06;3.50;;;2.00;;
53753;SDS011;39667;52.274;20.964;2022-08-01T01:04:41;2.80;;;2.00;;
53753;SDS011;39667;52.274;20.964;2022-08-01T01:07:23;4.40;;;2.20;;
53753;SDS011;39667;52.274;20.964;2022-08-01T01:10:09;3.50;;;2.00;;
53753;SDS011;39667;52.274;20.964;2022-08-01T01:12:44;3.90;;;1.80;;
53753;SDS011;39667;52.274;20.964;2022-08-01T01:15:24;5.60;;;2.40;;
53753;SDS011;39667;52.274;20.964;2022-08-01T01:20:51;3.20;;;2.00;;
53753;SDS011;39667;52.274;20.964;2022-08-01T01:23:32;3.50;;;2.20;;
53753;SDS011;39667;52.274;20.964;2022-08-01T01:26:26;4.20;;;2.10;;
53753;SDS011;39667;52.274;20.964;2022-08-01T01:31:48;3.50;;;2.10;;
53753;SDS011;39667;52.274;20.964;2022-08-01T01:34:22;2.60;;;2.10;;
53753;SDS011;39667;52.274;20.964;2022-08-01T01:36:51;4.10;;;2.20;;
53753;SDS011;39667;52.274;20.964;2022-08-01T01:39:20;6.60;;;2.80;;
53753;SDS011;39667;52.274;20.964;2022-08-01T01:41:51;3.90;;;2.10;;
53753;SDS011;39667;52.274;20.964;2022-08-01T01:44:21;8.80;;;2.30;;
53753;SDS011;39667;52.274;20.964;2022-08-01T01:46:48;3.50;;;2.10;;
53753;SDS011;39667;52.274;20.964;2022-08-01T01:49:19;8.70;;;2.60;;
53753;SDS011;39667;52.274;20.964;2022-08-01T01:51:50;4.60;;;2.00;;
53753;SDS011;39667;52.274;20.964;2022-08-01T01:54:29;3.10;;;2.40;;
53753;SDS011;39667;52.274;20.964;2022-08-01T01:57:00;3.40;;;1.80;;
53753;SDS011;39667;52.274;20.964;2022-08-01T01:59:31;3.70;;;2.00;;
53753;SDS011;39667;52.274;20.964;2022-08-01T02:02:01;7.20;;;1.90;;
53753;SDS011;39667;52.274;20.964;2022-08-01T02:04:32;6.20;;;1.90;;
53753;SDS011;39667;52.274;20.964;2022-08-01T02:07:04;4.00;;;2.20;;
53753;SDS011;39667;52.274;20.964;2022-08-01T02:09:35;5.30;;;2.20;;
53753;SDS011;39667;52.274;20.964;2022-08-01T02:12:04;4.70;;;2.10;;
53753;SDS011;39667;52.274;20.964;2022-08-01T02:14:34;6.60;;;2.30;;
53753;SDS011;39667;52.274;20.964;2022-08-01T02:17:02;6.90;;;2.50;;
53753;SDS011;39667;52.274;20.964;2022-08-01T02:19:32;3.40;;;2.30;;
53753;SDS011;39667;52.274;20.964;2022-08-01T02:27:25;4.30;;;2.00;;
53753;SDS011;39667;52.274;20.964;2022-08-01T02:29:59;3.30;;;2.10;;
53753;SDS011;39667;52.274;20.964;2022-08-01T02:36:20;5.20;;;2.00;;
53753;SDS011;39667;52.274;20.964;2022-08-01T02:38:59;3.60;;;2.20;;
53753;SDS011;39667;52.274;20.964;2022-08-01T02:41:28;7.70;;;2.50;;
53753;SDS011;39667;52.274;20.964;2022-08-01T02:43:59;3.90;;;2.40;;
53753;SDS011;39667;52.274;20.964;2022-08-01T02:46:33;2.50;;;1.90;;
53753;SDS011;39667;52.274;20.964;2022-08-01T02:49:06;3.70;;;1.80;;
53753;SDS011;39667;52.274;20.964;2022-08-01T02:51:36;5.10;;;2.00;;
53753;SDS011;39667;52.274;20.964;2022-08-01T02:54:06;3.00;;;2.20;;
53753;SDS011;39667;52.274;20.964;2022-08-01T02:56:35;4.00;;;2.30;;
53753;SDS011;39667;52.274;20.964;2022-08-01T02:59:05;6.70;;;2.10;;
53753;SDS011;39667;52.274;20.964;2022-08-01T03:01:39;4.80;;;1.80;;
53753;SDS011;39667;52.274;20.964;2022-08-01T03:04:09;3.00;;;1.90;;
53753;SDS011;39667;52.274;20.964;2022-08-01T03:06:38;6.70;;;2.70;;
53753;SDS011;39667;52.274;20.964;2022-08-01T03:09:10;3.00;;;2.00;;
53753;SDS011;39667;52.274;20.964;2022-08-01T03:11:39;5.50;;;2.40;;
53753;SDS011;39667;52.274;20.964;2022-08-01T03:14:10;5.30;;;2.40;;
53753;SDS011;39667;52.274;20.964;2022-08-01T03:16:39;4.70;;;2.00;;
53753;SDS011;39667;52.274;20.964;2022-08-01T03:19:10;4.90;;;2.30;;
53753;SDS011;39667;52.274;20.964;2022-08-01T03:21:38;8.10;;;2.30;;
53753;SDS011;39667;52.274;20.964;2022-08-01T03:24:07;9.30;;;2.90;;
53753;SDS011;39667;52.274;20.964;2022-08-01T03:26:36;7.10;;;2.90;;
53753;SDS011;39667;52.274;20.964;2022-08-01T03:29:06;6.20;;;2.20;;
53753;SDS011;39667;52.274;20.964;2022-08-01T03:31:38;7.30;;;2.40;;
53753;SDS011;39667;52.274;20.964;2022-08-01T03:34:09;7.30;;;2.30;;
53753;SDS011;39667;52.274;20.964;2022-08-01T03:36:39;4.50;;;2.20;;
53753;SDS011;39667;52.274;20.964;2022-08-01T03:39:15;7.00;;;2.70;;
53753;SDS011;39667;52.274;20.964;2022-08-01T03:41:47;2.70;;;2.30;;
53753;SDS011;39667;52.274;20.964;2022-08-01T03:44:24;3.70;;;2.30;;
53753;SDS011;39667;52.274;20.964;2022-08-01T03:47:02;4.90;;;2.30;;
53753;SDS011;39667;52.274;20.964;2022-08-01T03:49:33;3.80;;;2.30;;
53753;SDS011;39667;52.274;20.964;2022-08-01T03:52:04;5.70;;;2.40;;
53753;SDS011;39667;52.274;20.964;2022-08-01T03:54:38;4.40;;;2.80;;
53753;SDS011;39667;52.274;20.964;2022-08-01T03:57:10;8.10;;;2.80;;
53753;SDS011;39667;52.274;20.964;2022-08-01T03:59:57;4.50;;;2.60;;
53753;SDS011;39667;52.274;20.964;2022-08-01T04:02:26;5.20;;;2.60;;
53753;SDS011;39667;52.274;20.964;2022-08-01T04:04:54;7.50;;;2.40;;
53753;SDS011;39667;52.274;20.964;2022-08-01T04:07:25;6.10;;;2.80;;
53753;SDS011;39667;52.274;20.964;2022-08-01T04:09:53;8.40;;;2.80;;
53753;SDS011;39667;52.274;20.964;2022-08-01T04:12:21;4.70;;;2.90;;
53753;SDS011;39667;52.274;20.964;2022-08-01T04:14:48;4.40;;;2.70;;
53753;SDS011;39667;52.274;20.964;2022-08-01T04:17:16;6.80;;;2.50;;
53753;SDS011;39667;52.274;20.964;2022-08-01T04:19:44;4.60;;;2.50;;
53753;SDS011;39667;52.274;20.964;2022-08-01T04:22:13;4.30;;;3.30;;
53753;SDS011;39667;52.274;20.964;2022-08-01T04:24:42;4.70;;;2.60;;
53753;SDS011;39667;52.274;20.964;2022-08-01T04:27:23;5.40;;;3.10;;
53753;SDS011;39667;52.274;20.964;2022-08-01T04:30:16;4.40;;;2.90;;
53753;SDS011;39667;52.274;20.964;2022-08-01T04:32:46;5.50;;;2.80;;
53753;SDS011;39667;52.274;20.964;2022-08-01T04:35:15;4.60;;;2.80;;
53753;SDS011;39667;52.274;20.964;2022-08-01T04:38:05;7.50;;;3.30;;
53753;SDS011;39667;52.274;20.964;2022-08-01T04:40:33;4.30;;;3.50;;
53753;SDS011;39667;52.274;20.964;2022-08-01T04:43:02;4.50;;;2.80;;
53753;SDS011;39667;52.274;20.964;2022-08-01T04:45:31;4.80;;;2.70;;
53753;SDS011;39667;52.274;20.964;2022-08-01T04:47:58;5.90;;;2.80;;
53753;SDS011;39667;52.274;20.964;2022-08-01T04:50:26;5.10;;;2.70;;
53753;SDS011;39667;52.274;20.964;2022-08-01T04:52:54;3.10;;;2.80;;
53753;SDS011;39667;52.274;20.964;2022-08-01T04:55:21;4.20;;;2.80;;
53753;SDS011;39667;52.274;20.964;2022-08-01T04:57:48;3.20;;;3.00;;
53753;SDS011;39667;52.274;20.964;2022-08-01T05:00:15;6.70;;;3.30;;
53753;SDS011;39667;52.274;20.964;2022-08-01T05:02:45;5.70;;;3.00;;
53753;SDS011;39667;52.274;20.964;2022-08-01T05:05:13;4.30;;;3.20;;
53753;SDS011;39667;52.274;20.964;2022-08-01T05:07:41;8.30;;;3.40;;
53753;SDS011;39667;52.274;20.964;2022-08-01T05:10:11;6.20;;;3.10;;
53753;SDS011;39667;52.274;20.964;2022-08-01T05:12:38;9.20;;;3.40;;
53753;SDS011;39667;52.274;20.964;2022-08-01T05:15:05;8.30;;;3.30;;
53753;SDS011;39667;52.274;20.964;2022-08-01T05:17:40;3.80;;;3.30;;
53753;SDS011;39667;52.274;20.964;2022-08-01T05:20:11;3.90;;;3.60;;
53753;SDS011;39667;52.274;20.964;2022-08-01T05:22:38;4.30;;;3.60;;
53753;SDS011;39667;52.274;20.964;2022-08-01T05:25:06;4.90;;;3.00;;
53753;SDS011;39667;52.274;20.964;2022-08-01T05:27:33;5.70;;;3.50;;
53753;SDS011;39667;52.274;20.964;2022-08-01T05:30:06;5.80;;;3.70;;
53753;SDS011;39667;52.274;20.964;2022-08-01T05:32:35;3.70;;;3.40;;
53753;SDS011;39667;52.274;20.964;2022-08-01T05:35:03;6.80;;;3.30;;
53753;SDS011;39667;52.274;20.964;2022-08-01T05:37:30;4.70;;;4.20;;
53753;SDS011;39667;52.274;20.964;2022-08-01T05:39:57;4.30;;;3.90;;
53753;SDS011;39667;52.274;20.964;2022-08-01T05:42:24;3.70;;;3.40;;
53753;SDS011;39667;52.274;20.964;2022-08-01T05:44:51;6.50;;;3.80;;
53753;SDS011;39667;52.274;20.964;2022-08-01T05:47:18;3.50;;;3.20;;
53753;SDS011;39667;52.274;20.964;2022-08-01T05:49:45;4.80;;;3.60;;
53753;SDS011;39667;52.274;20.964;2022-08-01T05:52:12;4.90;;;3.90;;
53753;SDS011;39667;52.274;20.964;2022-08-01T05:54:39;6.90;;;3.80;;
53753;SDS011;39667;52.274;20.964;2022-08-01T05:57:06;8.10;;;3.90;;
53753;SDS011;39667;52.274;20.964;2022-08-01T05:59:33;10.30;;;3.60;;
53753;SDS011;39667;52.274;20.964;2022-08-01T06:02:00;4.10;;;3.30;;
53753;SDS011;39667;52.274;20.964;2022-08-01T06:04:27;4.50;;;3.10;;
53753;SDS011;39667;52.274;20.964;2022-08-01T06:06:54;7.60;;;3.70;;
53753;SDS011;39667;52.274;20.964;2022-08-01T06:09:21;7.50;;;3.50;;
53753;SDS011;39667;52.274;20.964;2022-08-01T06:11:48;6.30;;;3.20;;
53753;SDS011;39667;52.274;20.964;2022-08-01T06:14:15;10.10;;;3.60;;
53753;SDS011;39667;52.274;20.964;2022-08-01T06:16:41;7.30;;;3.30;;
53753;SDS011;39667;52.274;20.964;2022-08-01T06:19:08;7.30;;;3.00;;
53753;SDS011;39667;52.274;20.964;2022-08-01T06:21:35;12.00;;;4.30;;
53753;SDS011;39667;52.274;20.964;2022-08-01T06:24:02;13.50;;;4.70;;
53753;SDS011;39667;52.274;20.964;2022-08-01T06:26:29;12.70;;;5.60;;
53753;SDS011;39667;52.274;20.964;2022-08-01T06:28:57;14.10;;;5.90;;
53753;SDS011;39667;52.274;20.964;2022-08-01T06:31:24;12.50;;;5.60;;
53753;SDS011;39667;52.274;20.964;2022-08-01T06:33:57;20.60;;;7.60;;
53753;SDS011;39667;52.274;20.964;2022-08-01T06:36:24;18.70;;;10.00;;
53753;SDS011;39667;52.274;20.964;2022-08-01T06:38:51;24.10;;;10.50;;
53753;SDS011;39667;52.274;20.964;2022-08-01T06:41:18;21.20;;;10.30;;
53753;SDS011;39667;52.274;20.964;2022-08-01T06:43:45;16.10;;;8.70;;
53753;SDS011;39667;52.274;20.964;2022-08-01T06:46:12;17.80;;;8.00;;
53753;SDS011;39667;52.274;20.964;2022-08-01T06:48:39;19.60;;;6.50;;
53753;SDS011;39667;52.274;20.964;2022-08-01T06:51:06;23.00;;;6.80;;
53753;SDS011;39667;52.274;20.964;2022-08-01T06:53:37;11.60;;;4.60;;
53753;SDS011;39667;52.274;20.964;2022-08-01T06:56:05;14.00;;;5.50;;
53753;SDS011;39667;52.274;20.964;2022-08-01T06:58:35;16.00;;;4.90;;
53753;SDS011;39667;52.274;20.964;2022-08-01T07:01:03;11.60;;;4.80;;
53753;SDS011;39667;52.274;20.964;2022-08-01T07:03:34;14.70;;;4.10;;
53753;SDS011;39667;52.274;20.964;2022-08-01T07:06:23;10.30;;;4.90;;
53753;SDS011;39667;52.274;20.964;2022-08-01T07:08:53;10.60;;;4.10;;
53753;SDS011;39667;52.274;20.964;2022-08-01T07:11:20;12.00;;;4.30;;
53753;SDS011;39667;52.274;20.964;2022-08-01T07:13:48;27.00;;;6.40;;
53753;SDS011;39667;52.274;20.964;2022-08-01T07:16:15;10.30;;;6.50;;
53753;SDS011;39667;52.274;20.964;2022-08-01T07:18:43;14.80;;;6.80;;
53753;SDS011;39667;52.274;20.964;2022-08-01T07:21:10;12.40;;;7.00;;
53753;SDS011;39667;52.274;20.964;2022-08-01T07:23:57;18.00;;;6.10;;
53753;SDS011;39667;52.274;20.964;2022-08-01T07:26:25;8.70;;;4.50;;
53753;SDS011;39667;52.274;20.964;2022-08-01T07:28:53;8.60;;;4.50;;
53753;SDS011;39667;52.274;20.964;2022-08-01T07:31:21;8.40;;;4.00;;
53753;SDS011;39667;52.274;20.964;2022-08-01T07:33:49;6.80;;;3.60;;
53753;SDS011;39667;52.274;20.964;2022-08-01T07:36:17;8.70;;;3.70;;
53753;SDS011;39667;52.274;20.964;2022-08-01T07:38:44;8.20;;;4.70;;
53753;SDS011;39667;52.274;20.964;2022-08-01T07:41:12;9.70;;;4.30;;
53753;SDS011;39667;52.274;20.964;2022-08-01T07:43:39;16.70;;;5.70;;
53753;SDS011;39667;52.274;20.964;2022-08-01T07:46:10;8.20;;;4.00;;
53753;SDS011;39667;52.274;20.964;2022-08-01T07:48:37;7.20;;;2.60;;
53753;SDS011;39667;52.274;20.964;2022-08-01T07:51:04;6.40;;;2.30;;
53753;SDS011;39667;52.274;20.964;2022-08-01T07:53:31;7.20;;;2.40;;
53753;SDS011;39667;52.274;20.964;2022-08-01T07:55:58;4.10;;;2.00;;
53753;SDS011;39667;52.274;20.964;2022-08-01T07:58:26;4.50;;;2.00;;
53753;SDS011;39667;52.274;20.964;2022-08-01T08:00:52;4.10;;;2.40;;
53753;SDS011;39667;52.274;20.964;2022-08-01T08:03:19;6.30;;;2.30;;
53753;SDS011;39667;52.274;20.964;2022-08-01T08:05:46;4.90;;;1.70;;
53753;SDS011;39667;52.274;20.964;2022-08-01T08:08:25;6.90;;;3.10;;
53753;SDS011;39667;52.274;20.964;2022-08-01T08:10:52;3.40;;;2.60;;
53753;SDS011;39667;52.274;20.964;2022-08-01T08:13:20;3.30;;;2.10;;
53753;SDS011;39667;52.274;20.964;2022-08-01T08:15:47;5.10;;;2.40;;
53753;SDS011;39667;52.274;20.964;2022-08-01T08:18:14;3.90;;;2.00;;
53753;SDS011;39667;52.274;20.964;2022-08-01T08:20:42;6.10;;;1.70;;
53753;SDS011;39667;52.274;20.964;2022-08-01T08:23:09;5.10;;;1.90;;
53753;SDS011;39667;52.274;20.964;2022-08-01T08:26:09;4.40;;;2.50;;
53753;SDS011;39667;52.274;20.964;2022-08-01T08:28:37;4.30;;;2.50;;
53753;SDS011;39667;52.274;20.964;2022-08-01T08:31:06;5.00;;;2.10;;
53753;SDS011;39667;52.274;20.964;2022-08-01T08:33:54;4.00;;;1.80;;
53753;SDS011;39667;52.274;20.964;2022-08-01T08:36:21;2.80;;;1.60;;
53753;SDS011;39667;52.274;20.964;2022-08-01T08:38:57;2.70;;;1.60;;
53753;SDS011;39667;52.274;20.964;2022-08-01T08:41:28;3.00;;;1.50;;
53753;SDS011;39667;52.274;20.964;2022-08-01T08:44:04;2.30;;;1.70;;
53753;SDS011;39667;52.274;20.964;2022-08-01T08:46:42;3.90;;;1.70;;
53753;SDS011;39667;52.274;20.964;2022-08-01T08:49:11;5.50;;;2.10;;
53753;SDS011;39667;52.274;20.964;2022-08-01T08:51:42;2.70;;;1.60;;
53753;SDS011;39667;52.274;20.964;2022-08-01T08:54:10;0.90;;;0.90;;
53753;SDS011;39667;52.274;20.964;2022-08-01T08:56:41;3.70;;;1.70;;
53753;SDS011;39667;52.274;20.964;2022-08-01T08:59:11;5.30;;;1.40;;
53753;SDS011;39667;52.274;20.964;2022-08-01T09:01:42;1.70;;;1.20;;
53753;SDS011;39667;52.274;20.964;2022-08-01T09:04:09;5.30;;;1.40;;
53753;SDS011;39667;52.274;20.964;2022-08-01T09:06:37;1.40;;;1.20;;
53753;SDS011;39667;52.274;20.964;2022-08-01T09:09:06;3.30;;;1.40;;
53753;SDS011;39667;52.274;20.964;2022-08-01T09:11:34;1.20;;;1.10;;
53753;SDS011;39667;52.274;20.964;2022-08-01T09:14:06;5.60;;;1.30;;
53753;SDS011;39667;52.274;20.964;2022-08-01T09:16:40;4.80;;;1.80;;
53753;SDS011;39667;52.274;20.964;2022-08-01T09:19:18;3.10;;;1.60;;
53753;SDS011;39667;52.274;20.964;2022-08-01T09:22:10;1.40;;;1.10;;
53753;SDS011;39667;52.274;20.964;2022-08-01T09:24:40;1.40;;;1.10;;
53753;SDS011;39667;52.274;20.964;2022-08-01T09:27:18;5.40;;;1.70;;
53753;SDS011;39667;52.274;20.964;2022-08-01T09:29:47;1.60;;;1.40;;
53753;SDS011;39667;52.274;20.964;2022-08-01T09:32:30;5.20;;;1.60;;
53753;SDS011;39667;52.274;20.964;2022-08-01T09:35:22;2.80;;;1.60;;
53753;SDS011;39667;52.274;20.964;2022-08-01T09:40:51;2.20;;;1.60;;
53753;SDS011;39667;52.274;20.964;2022-08-01T09:43:19;2.10;;;1.40;;
53753;SDS011;39667;52.274;20.964;2022-08-01T09:45:47;2.40;;;1.40;;
53753;SDS011;39667;52.274;20.964;2022-08-01T09:48:19;2.30;;;1.40;;
53753;SDS011;39667;52.274;20.964;2022-08-01T09:50:55;3.40;;;1.40;;
53753;SDS011;39667;52.274;20.964;2022-08-01T09:53:40;4.00;;;1.20;;
53753;SDS011;39667;52.274;20.964;2022-08-01T09:56:17;1.40;;;1.30;;
53753;SDS011;39667;52.274;20.964;2022-08-01T10:01:26;5.30;;;1.60;;
53753;SDS011;39667;52.274;20.964;2022-08-01T10:04:07;3.70;;;3.20;;
53753;SDS011;39667;52.274;20.964;2022-08-01T10:06:41;6.60;;;1.80;;
53753;SDS011;39667;52.274;20.964;2022-08-01T10:09:12;3.80;;;1.30;;
53753;SDS011;39667;52.274;20.964;2022-08-01T10:11:42;3.40;;;1.30;;
53753;SDS011;39667;52.274;20.964;2022-08-01T10:14:10;1.30;;;1.20;;
53753;SDS011;39667;52.274;20.964;2022-08-01T10:16:43;3.40;;;1.20;;
53753;SDS011;39667;52.274;20.964;2022-08-01T10:21:50;3.70;;;1.60;;
53753;SDS011;39667;52.274;20.964;2022-08-01T10:24:25;3.70;;;1.70;;
53753;SDS011;39667;52.274;20.964;2022-08-01T10:26:55;2.60;;;1.60;;
53753;SDS011;39667;52.274;20.964;2022-08-01T10:29:50;2.60;;;1.50;;
53753;SDS011;39667;52.274;20.964;2022-08-01T10:32:34;2.30;;;1.30;;
53753;SDS011;39667;52.274;20.964;2022-08-01T10:35:05;4.30;;;1.50;;
53753;SDS011;39667;52.274;20.964;2022-08-01T10:40:18;3.00;;;1.40;;
53753;SDS011;39667;52.274;20.964;2022-08-01T10:43:02;2.10;;;1.10;;
53753;SDS011;39667;52.274;20.964;2022-08-01T10:45:29;1.50;;;1.10;;
53753;SDS011;39667;52.274;20.964;2022-08-01T10:48:04;2.60;;;1.10;;
53753;SDS011;39667;52.274;20.964;2022-08-01T10:50:42;3.40;;;1.40;;
53753;SDS011;39667;52.274;20.964;2022-08-01T10:53:15;1.30;;;1.10;;
53753;SDS011;39667;52.274;20.964;2022-08-01T10:58:30;1.70;;;1.20;;
53753;SDS011;39667;52.274;20.964;2022-08-01T11:04:14;2.50;;;1.30;;
53753;SDS011;39667;52.274;20.964;2022-08-01T11:09:20;3.90;;;1.20;;
53753;SDS011;39667;52.274;20.964;2022-08-01T11:12:04;1.90;;;1.20;;
53753;SDS011;39667;52.274;20.964;2022-08-01T11:17:34;1.40;;;1.30;;
53753;SDS011;39667;52.274;20.964;2022-08-01T11:28:23;3.20;;;1.30;;
53753;SDS011;39667;52.274;20.964;2022-08-01T11:38:44;2.40;;;1.10;;
53753;SDS011;39667;52.274;20.964;2022-08-01T11:41:14;1.10;;;1.00;;
53753;SDS011;39667;52.274;20.964;2022-08-01T11:49:27;2.20;;;1.40;;
53753;SDS011;39667;52.274;20.964;2022-08-01T11:52:39;3.30;;;1.30;;
53753;SDS011;39667;52.274;20.964;2022-08-01T11:55:08;1.70;;;1.20;;
53753;SDS011;39667;52.274;20.964;2022-08-01T11:57:37;1.20;;;1.10;;
53753;SDS011;39667;52.274;20.964;2022-08-01T12:00:14;3.10;;;1.40;;
53753;SDS011;39667;52.274;20.964;2022-08-01T12:02:46;3.40;;;1.40;;
53753;SDS011;39667;52.274;20.964;2022-08-01T12:06:54;2.20;;;1.40;;
53753;SDS011;39667;52.274;20.964;2022-08-01T12:09:21;3.90;;;1.60;;
53753;SDS011;39667;52.274;20.964;2022-08-01T12:11:49;2.40;;;1.20;;
53753;SDS011;39667;52.274;20.964;2022-08-01T12:14:19;1.20;;;1.10;;
53753;SDS011;39667;52.274;20.964;2022-08-01T12:16:49;3.70;;;1.60;;
53753;SDS011;39667;52.274;20.964;2022-08-01T12:19:20;1.40;;;1.30;;
53753;SDS011;39667;52.274;20.964;2022-08-01T12:22:04;2.80;;;1.40;;
53753;SDS011;39667;52.274;20.964;2022-08-01T12:24:37;7.60;;;1.70;;
53753;SDS011;39667;52.274;20.964;2022-08-01T12:27:05;2.10;;;1.10;;
53753;SDS011;39667;52.274;20.964;2022-08-01T12:29:38;8.30;;;1.60;;
53753;SDS011;39667;52.274;20.964;2022-08-01T12:34:54;1.90;;;1.10;;
53753;SDS011;39667;52.274;20.964;2022-08-01T12:37:25;1.50;;;1.20;;
53753;SDS011;39667;52.274;20.964;2022-08-01T12:39:52;3.50;;;1.70;;
53753;SDS011;39667;52.274;20.964;2022-08-01T12:42:19;6.30;;;3.80;;
53753;SDS011;39667;52.274;20.964;2022-08-01T12:44:48;6.40;;;2.00;;
53753;SDS011;39667;52.274;20.964;2022-08-01T12:47:18;3.30;;;1.70;;
53753;SDS011;39667;52.274;20.964;2022-08-01T12:49:46;3.40;;;1.40;;
53753;SDS011;39667;52.274;20.964;2022-08-01T12:52:14;2.40;;;1.50;;
53753;SDS011;39667;52.274;20.964;2022-08-01T12:54:59;3.10;;;1.10;;
53753;SDS011;39667;52.274;20.964;2022-08-01T12:57:36;2.10;;;1.50;;
53753;SDS011;39667;52.274;20.964;2022-08-01T13:00:12;1.70;;;1.40;;
53753;SDS011;39667;52.274;20.964;2022-08-01T13:02:45;3.10;;;1.50;;
53753;SDS011;39667;52.274;20.964;2022-08-01T13:05:14;1.30;;;1.20;;
53753;SDS011;39667;52.274;20.964;2022-08-01T13:10:12;2.70;;;1.60;;
53753;SDS011;39667;52.274;20.964;2022-08-01T13:12:42;1.40;;;1.30;;
53753;SDS011;39667;52.274;20.964;2022-08-01T13:17:51;3.10;;;1.80;;
53753;SDS011;39667;52.274;20.964;2022-08-01T13:20:26;2.40;;;1.60;;
53753;SDS011;39667;52.274;20.964;2022-08-01T13:22:55;1.80;;;1.50;;
53753;SDS011;39667;52.274;20.964;2022-08-01T13:26:53;1.90;;;1.70;;
53753;SDS011;39667;52.274;20.964;2022-08-01T13:29:39;3.40;;;1.70;;
53753;SDS011;39667;52.274;20.964;2022-08-01T13:35:05;2.90;;;1.70;;
53753;SDS011;39667;52.274;20.964;2022-08-01T13:37:34;1.80;;;1.70;;
53753;SDS011;39667;52.274;20.964;2022-08-01T13:40:03;5.80;;;1.90;;
53753;SDS011;39667;52.274;20.964;2022-08-01T13:42:31;4.90;;;2.20;;
53753;SDS011;39667;52.274;20.964;2022-08-01T13:44:58;4.50;;;1.90;;
53753;SDS011;39667;52.274;20.964;2022-08-01T13:47:25;1.90;;;1.80;;
53753;SDS011;39667;52.274;20.964;2022-08-01T13:49:58;4.90;;;2.30;;
53753;SDS011;39667;52.274;20.964;2022-08-01T13:52:30;5.40;;;2.20;;
53753;SDS011;39667;52.274;20.964;2022-08-01T13:54:58;5.40;;;2.60;;
53753;SDS011;39667;52.274;20.964;2022-08-01T13:57:25;3.30;;;2.60;;
53753;SDS011;39667;52.274;20.964;2022-08-01T14:00:06;3.10;;;2.20;;
53753;SDS011;39667;52.274;20.964;2022-08-01T14:05:04;2.40;;;2.20;;
53753;SDS011;39667;52.274;20.964;2022-08-01T14:07:31;4.00;;;2.40;;
53753;SDS011;39667;52.274;20.964;2022-08-01T14:09:58;3.00;;;1.90;;
53753;SDS011;39667;52.274;20.964;2022-08-01T14:12:44;2.00;;;1.70;;
53753;SDS011;39667;52.274;20.964;2022-08-01T14:15:16;3.20;;;2.00;;
53753;SDS011;39667;52.274;20.964;2022-08-01T14:18:03;5.80;;;1.80;;
53753;SDS011;39667;52.274;20.964;2022-08-01T14:20:32;2.00;;;1.90;;
53753;SDS011;39667;52.274;20.964;2022-08-01T14:22:59;1.70;;;1.60;;
53753;SDS011;39667;52.274;20.964;2022-08-01T14:25:26;3.40;;;2.20;;
53753;SDS011;39667;52.274;20.964;2022-08-01T14:28:13;2.00;;;1.80;;
53753;SDS011;39667;52.274;20.964;2022-08-01T14:30:41;2.10;;;1.90;;
53753;SDS011;39667;52.274;20.964;2022-08-01T14:33:09;2.10;;;1.90;;
53753;SDS011;39667;52.274;20.964;2022-08-01T14:35:37;2.10;;;1.90;;
53753;SDS011;39667;52.274;20.964;2022-08-01T14:38:24;2.70;;;2.00;;
53753;SDS011;39667;52.274;20.964;2022-08-01T14:40:58;4.70;;;2.30;;
53753;SDS011;39667;52.274;20.964;2022-08-01T14:43:25;4.30;;;1.80;;
53753;SDS011;39667;52.274;20.964;2022-08-01T14:45:59;3.00;;;2.00;;
53753;SDS011;39667;52.274;20.964;2022-08-01T14:48:26;2.60;;;2.10;;
53753;SDS011;39667;52.274;20.964;2022-08-01T14:50:56;3.40;;;1.80;;
53753;SDS011;39667;52.274;20.964;2022-08-01T14:53:23;2.10;;;2.00;;
53753;SDS011;39667;52.274;20.964;2022-08-01T14:55:50;2.60;;;1.60;;
53753;SDS011;39667;52.274;20.964;2022-08-01T14:58:19;4.70;;;2.00;;
53753;SDS011;39667;52.274;20.964;2022-08-01T15:00:46;2.70;;;2.20;;
53753;SDS011;39667;52.274;20.964;2022-08-01T15:03:13;6.40;;;2.00;;
53753;SDS011;39667;52.274;20.964;2022-08-01T15:05:40;2.50;;;2.10;;
53753;SDS011;39667;52.274;20.964;2022-08-01T15:08:07;1.70;;;1.60;;
53753;SDS011;39667;52.274;20.964;2022-08-01T15:10:36;2.10;;;1.80;;
53753;SDS011;39667;52.274;20.964;2022-08-01T15:13:03;3.90;;;1.80;;
53753;SDS011;39667;52.274;20.964;2022-08-01T15:15:30;2.00;;;1.50;;
53753;SDS011;39667;52.274;20.964;2022-08-01T15:17:57;3.00;;;1.60;;
53753;SDS011;39667;52.274;20.964;2022-08-01T15:20:24;4.90;;;1.80;;
53753;SDS011;39667;52.274;20.964;2022-08-01T15:22:53;1.90;;;1.80;;
53753;SDS011;39667;52.274;20.964;2022-08-01T15:25:20;2.50;;;2.00;;
53753;SDS011;39667;52.274;20.964;2022-08-01T15:27:47;1.80;;;1.70;;
53753;SDS011;39667;52.274;20.964;2022-08-01T15:30:14;4.20;;;1.70;;
53753;SDS011;39667;52.274;20.964;2022-08-01T15:32:41;3.90;;;1.80;;
53753;SDS011;39667;52.274;20.964;2022-08-01T15:35:08;2.70;;;1.70;;
53753;SDS011;39667;52.274;20.964;2022-08-01T15:37:36;2.90;;;2.00;;
53753;SDS011;39667;52.274;20.964;2022-08-01T15:40:09;1.80;;;1.70;;
53753;SDS011;39667;52.274;20.964;2022-08-01T15:42:37;2.40;;;1.60;;
53753;SDS011;39667;52.274;20.964;2022-08-01T15:45:04;2.40;;;1.40;;
53753;SDS011;39667;52.274;20.964;2022-08-01T15:47:38;2.20;;;1.90;;
53753;SDS011;39667;52.274;20.964;2022-08-01T15:50:05;1.60;;;1.50;;
53753;SDS011;39667;52.274;20.964;2022-08-01T15:52:33;2.20;;;1.80;;
53753;SDS011;39667;52.274;20.964;2022-08-01T15:55:01;5.20;;;1.70;;
53753;SDS011;39667;52.274;20.964;2022-08-01T15:57:29;5.40;;;1.60;;
53753;SDS011;39667;52.274;20.964;2022-08-01T15:59:56;3.50;;;1.70;;
53753;SDS011;39667;52.274;20.964;2022-08-01T16:02:23;2.50;;;1.90;;
53753;SDS011;39667;52.274;20.964;2022-08-01T16:04:50;6.10;;;1.90;;
53753;SDS011;39667;52.274;20.964;2022-08-01T16:46:51;3.40;;;1.90;;
53753;SDS011;39667;52.274;20.964;2022-08-01T17:00:50;4.60;;;2.20;;